Time,TemperatureF,DewpointF,PressureIn,WindDirection,WindDirectionDegrees,WindSpeedMPH,WindSpeedGustMPH,Humidity,HourlyPrecipIn,Conditions,Clouds,dailyrainin,SoftwareType,DateUTC
2013-01-08 00:00:00,40.8,28.0,29.97,WNW,302,6.0,6.0,60,0.00,,,0.00,LWC V2.00 B2112,2013-01-08 08:00:00,
2013-01-08 00:05:00,40.8,28.8,29.97,NW,318,0.0,0.0,62,0.00,,,0.00,LWC V2.00 B2112,2013-01-08 08:05:00,
2013-01-08 00:10:00,39.9,29.5,29.97,NW,318,0.0,0.0,66,0.00,,,0.00,LWC V2.00 B2112,2013-01-08 08:10:00,
2013-01-08 00:15:00,38.9,29.6,29.98,NW,318,0.0,0.0,69,0.00,,,0.00,LWC V2.00 B2112,2013-01-08 08:15:00,
2013-01-08 00:20:00,38.0,29.8,29.98,NW,318,0.0,0.0,72,0.00,,,0.00,LWC V2.00 B2112,2013-01-08 08:20:00,
2013-01-08 00:25:00,37.2,30.0,29.98,NW,318,0.0,1.0,75,0.00,,,0.00,LWC V2.00 B2112,2013-01-08 08:25:00,
2013-01-08 00:30:00,36.6,29.4,29.98,WSW,244,0.0,4.0,75,0.00,,,0.00,LWC V2.00 B2112,2013-01-08 08:30:00,
2013-01-08 00:35:00,36.2,30.0,29.98,WSW,244,0.0,0.0,78,0.00,,,0.00,LWC V2.00 B2112,2013-01-08 08:35:00,
2013-01-08 00:40:00,35.9,29.7,29.98,WSW,247,0.0,0.0,78,0.00,,,0.00,LWC V2.00 B2112,2013-01-08 08:40:00,
2013-01-08 00:45:00,35.5,29.6,29.98,NNW,339,2.0,2.0,79,0.00,,,0.00,LWC V2.00 B2112,2013-01-08 08:45:00,
2013-01-08 00:50:00,35.9,29.1,29.98,ESE,109,1.0,4.0,76,0.00,,,0.00,LWC V2.00 B2112,2013-01-08 08:50:00,
2013-01-08 00:55:00,36.2,29.1,29.98,NW,305,4.0,4.0,75,0.00,,,0.00,LWC V2.00 B2112,2013-01-08 08:55:00,
2013-01-08 01:00:00,37.3,29.5,30.00,NW,325,0.0,0.0,73,0.00,,,0.00,LWC V2.00 B2112,2013-01-08 09:00:00,
2013-01-08 01:05:00,37.0,30.2,30.00,SW,222,0.0,2.0,76,0.00,,,0.00,LWC V2.00 B2112,2013-01-08 09:05:00,
2013-01-08 01:10:00,36.8,29.6,30.00,SE,126,4.0,4.0,75,0.00,,,0.00,LWC V2.00 B2112,2013-01-08 09:10:00,
2013-01-08 01:15:00,36.5,28.7,30.00,SW,217,2.0,4.0,73,0.00,,,0.00,LWC V2.00 B2112,2013-01-08 09:15:00,
2013-01-08 01:20:00,35.8,29.0,30.00,West,265,0.0,1.0,76,0.00,,,0.00,LWC V2.00 B2112,2013-01-08 09:20:00,
2013-01-08 01:25:00,35.8,28.7,30.00,NW,313,0.0,0.0,75,0.00,,,0.00,LWC V2.00 B2112,2013-01-08 09:25:00,
2013-01-08 01:30:00,35.9,28.4,30.01,South,191,0.0,0.0,74,0.00,,,0.00,LWC V2.00 B2112,2013-01-08 09:30:00,
2013-01-08 01:35:00,35.8,29.0,30.01,South,191,0.0,0.0,76,0.00,,,0.00,LWC V2.00 B2112,2013-01-08 09:35:00,
2013-01-08 01:40:00,35.3,29.1,30.01,South,191,0.0,2.0,78,0.00,,,0.00,LWC V2.00 B2112,2013-01-08 09:40:00,
2013-01-08 01:45:00,34.7,28.9,30.01,SSW,212,1.0,4.0,79,0.00,,,0.00,LWC V2.00 B2112,2013-01-08 09:45:00,
2013-01-08 01:50:00,34.1,28.9,30.01,SE,133,2.0,2.0,81,0.00,,,0.00,LWC V2.00 B2112,2013-01-08 09:50:00,
2013-01-08 01:55:00,33.7,28.5,30.01,SW,220,0.0,4.0,81,0.00,,,0.00,LWC V2.00 B2112,2013-01-08 09:55:00,
2013-01-08 02:00:00,33.2,28.0,30.02,SW,220,0.0,0.0,81,0.00,,,0.00,LWC V2.00 B2112,2013-01-08 10:00:00,
2013-01-08 02:05:00,32.9,27.7,30.02,WSW,239,0.0,2.0,81,0.00,,,0.00,LWC V2.00 B2112,2013-01-08 10:05:00,
2013-01-08 02:10:00,32.7,27.2,30.02,WSW,239,0.0,0.0,80,0.00,,,0.00,LWC V2.00 B2112,2013-01-08 10:10:00,
2013-01-08 02:15:00,32.4,28.1,30.03,WSW,251,0.0,4.0,84,0.00,,,0.00,LWC V2.00 B2112,2013-01-08 10:15:00,
2013-01-08 02:20:00,31.8,27.2,30.03,WSW,251,0.0,0.0,83,0.00,,,0.00,LWC V2.00 B2112,2013-01-08 10:20:00,
2013-01-08 02:25:00,31.9,27.9,30.03,WSW,251,0.0,2.0,85,0.00,,,0.00,LWC V2.00 B2112,2013-01-08 10:25:00,
2013-01-08 02:30:00,31.9,28.2,30.04,NW,311,0.0,1.0,86,0.00,,,0.00,LWC V2.00 B2112,2013-01-08 10:30:00,
2013-01-08 02:35:00,31.9,27.9,30.04,NW,311,0.0,2.0,85,0.00,,,0.00,LWC V2.00 B2112,2013-01-08 10:35:00,
2013-01-08 02:40:00,32.1,28.4,30.04,NW,311,0.0,0.0,86,0.00,,,0.00,LWC V2.00 B2112,2013-01-08 10:40:00,
2013-01-08 02:45:00,32.1,27.8,30.05,NW,312,0.0,6.0,84,0.00,,,0.00,LWC V2.00 B2112,2013-01-08 10:45:00,
2013-01-08 02:50:00,31.8,27.5,30.05,NW,312,0.0,0.0,84,0.00,,,0.00,LWC V2.00 B2112,2013-01-08 10:50:00,
2013-01-08 02:53:00,31.6,27.3,30.05,NW,312,0.0,0.0,84,0.00,,,0.00,LWC V2.00 B2112,2013-01-08 10:53:00,
2013-01-08 02:58:00,32.1,28.4,30.04,NW,312,0.0,0.0,86,0.00,,,0.00,LWC V2.00 B2112,2013-01-08 10:58:00,
2013-01-08 03:03:00,32.1,28.4,30.04,NW,312,0.0,0.0,86,0.00,,,0.00,LWC V2.00 B2112,2013-01-08 11:03:00,
2013-01-08 03:08:00,31.6,27.6,30.04,NW,312,0.0,0.0,85,0.00,,,0.00,LWC V2.00 B2112,2013-01-08 11:08:00,
2013-01-08 03:13:00,31.0,26.7,30.05,NW,312,0.0,0.0,84,0.00,,,0.00,LWC V2.00 B2112,2013-01-08 11:13:00,
2013-01-08 03:18:00,30.7,26.7,30.05,NW,312,0.0,0.0,85,0.00,,,0.00,LWC V2.00 B2112,2013-01-08 11:18:00,
2013-01-08 03:23:00,30.1,26.7,30.05,NW,312,0.0,0.0,87,0.00,,,0.00,LWC V2.00 B2112,2013-01-08 11:23:00,
2013-01-08 03:28:00,30.1,27.3,30.06,NW,312,0.0,0.0,89,0.00,,,0.00,LWC V2.00 B2112,2013-01-08 11:28:00,
2013-01-08 03:33:00,29.7,26.9,30.06,NW,312,0.0,0.0,89,0.00,,,0.00,LWC V2.00 B2112,2013-01-08 11:33:00,
2013-01-08 03:38:00,29.1,25.7,30.06,NW,312,0.0,0.0,87,0.00,,,0.00,LWC V2.00 B2112,2013-01-08 11:38:00,
2013-01-08 03:43:00,29.1,26.5,30.07,NW,312,0.0,0.0,90,0.00,,,0.00,LWC V2.00 B2112,2013-01-08 11:43:00,
2013-01-08 03:48:00,29.1,26.5,30.07,NW,312,0.0,0.0,90,0.00,,,0.00,LWC V2.00 B2112,2013-01-08 11:48:00,
2013-01-08 03:53:00,29.1,26.8,30.07,NW,312,0.0,0.0,91,0.00,,,0.00,LWC V2.00 B2112,2013-01-08 11:53:00,
2013-01-08 03:58:00,29.3,26.7,30.07,NW,312,0.0,0.0,90,0.00,,,0.00,LWC V2.00 B2112,2013-01-08 11:58:00,
2013-01-08 04:03:00,29.7,27.4,30.07,NW,312,2.0,2.0,91,0.00,,,0.00,LWC V2.00 B2112,2013-01-08 12:03:00,
2013-01-08 04:08:00,30.0,27.4,30.07,NW,312,0.0,0.0,90,0.00,,,0.00,LWC V2.00 B2112,2013-01-08 12:08:00,
2013-01-08 04:13:00,30.0,27.2,30.08,NW,312,0.0,0.0,89,0.00,,,0.00,LWC V2.00 B2112,2013-01-08 12:13:00,
2013-01-08 04:18:00,29.8,27.0,30.08,NW,312,0.0,0.0,89,0.00,,,0.00,LWC V2.00 B2112,2013-01-08 12:18:00,
2013-01-08 04:23:00,29.8,27.0,30.08,NW,312,0.0,0.0,89,0.00,,,0.00,LWC V2.00 B2112,2013-01-08 12:23:00,
2013-01-08 04:28:00,29.7,26.9,30.08,NW,312,0.0,0.0,89,0.00,,,0.00,LWC V2.00 B2112,2013-01-08 12:28:00,
2013-01-08 04:33:00,29.5,26.7,30.08,NW,312,0.0,0.0,89,0.00,,,0.00,LWC V2.00 B2112,2013-01-08 12:33:00,
2013-01-08 04:38:00,29.1,26.5,30.08,NW,312,0.0,0.0,90,0.00,,,0.00,LWC V2.00 B2112,2013-01-08 12:38:00,
2013-01-08 04:43:00,29.0,26.7,30.07,NW,312,0.0,0.0,91,0.00,,,0.00,LWC V2.00 B2112,2013-01-08 12:43:00,
2013-01-08 04:48:00,29.0,26.7,30.07,NW,312,0.0,0.0,91,0.00,,,0.00,LWC V2.00 B2112,2013-01-08 12:48:00,
2013-01-08 04:53:00,28.8,26.2,30.07,NW,312,1.0,2.0,90,0.00,,,0.00,LWC V2.00 B2112,2013-01-08 12:53:00,
2013-01-08 04:58:00,29.4,27.4,30.07,NW,312,2.0,4.0,92,0.00,,,0.00,LWC V2.00 B2112,2013-01-08 12:58:00,
2013-01-08 05:03:00,29.7,27.7,30.07,NW,312,0.0,0.0,92,0.00,,,0.00,LWC V2.00 B2112,2013-01-08 13:03:00,
2013-01-08 05:08:00,30.0,28.0,30.07,NW,312,0.0,1.0,92,0.00,,,0.00,LWC V2.00 B2112,2013-01-08 13:08:00,
2013-01-08 05:13:00,30.4,28.1,30.08,NW,312,0.0,0.0,91,0.00,,,0.00,LWC V2.00 B2112,2013-01-08 13:13:00,
2013-01-08 05:18:00,30.9,28.6,30.08,NW,312,0.0,0.0,91,0.00,,,0.00,LWC V2.00 B2112,2013-01-08 13:18:00,
2013-01-08 05:23:00,30.6,28.3,30.08,NW,312,4.0,4.0,91,0.00,,,0.00,LWC V2.00 B2112,2013-01-08 13:23:00,
2013-01-08 05:28:00,30.9,28.3,30.08,NW,312,1.0,2.0,90,0.00,,,0.00,LWC V2.00 B2112,2013-01-08 13:28:00,
2013-01-08 05:33:00,31.6,28.2,30.08,West,270,0.0,0.0,87,0.00,,,0.00,LWC V2.00 B2112,2013-01-08 13:33:00,
2013-01-08 05:38:00,31.8,28.7,30.08,West,270,0.0,0.0,88,0.00,,,0.00,LWC V2.00 B2112,2013-01-08 13:38:00,
2013-01-08 05:43:00,32.2,28.8,30.07,West,270,2.0,4.0,87,0.00,,,0.00,LWC V2.00 B2112,2013-01-08 13:43:00,
2013-01-08 05:48:00,33.5,29.2,30.07,NNW,335,8.0,8.0,84,0.00,,,0.00,LWC V2.00 B2112,2013-01-08 13:48:00,
2013-01-08 05:53:00,34.4,28.6,30.07,WNW,288,0.0,6.0,79,0.00,,,0.00,LWC V2.00 B2112,2013-01-08 13:53:00,
2013-01-08 05:58:00,34.3,29.4,30.03,WNW,288,0.0,0.0,82,0.00,,,0.00,LWC V2.00 B2112,2013-01-08 13:58:00,
2013-01-08 06:03:00,34.6,28.5,30.03,NW,322,4.0,6.0,78,0.00,,,0.00,LWC V2.00 B2112,2013-01-08 14:03:00,
2013-01-08 06:08:00,34.9,29.1,30.03,NW,311,4.0,6.0,79,0.00,,,0.00,LWC V2.00 B2112,2013-01-08 14:08:00,
2013-01-08 06:13:00,34.9,28.4,30.03,West,281,6.0,8.0,77,0.00,,,0.00,LWC V2.00 B2112,2013-01-08 14:13:00,
2013-01-08 06:18:00,35.0,28.5,30.03,WNW,291,4.0,7.0,77,0.00,,,0.00,LWC V2.00 B2112,2013-01-08 14:18:00,
2013-01-08 06:23:00,35.2,28.1,30.03,NW,306,1.0,2.0,75,0.00,,,0.00,LWC V2.00 B2112,2013-01-08 14:23:00,
2013-01-08 06:28:00,35.2,28.1,30.02,WNW,295,4.0,8.0,75,0.00,,,0.00,LWC V2.00 B2112,2013-01-08 14:28:00,
2013-01-08 06:33:00,34.9,28.1,30.02,WNW,298,2.0,6.0,76,0.00,,,0.00,LWC V2.00 B2112,2013-01-08 14:33:00,
2013-01-08 06:38:00,35.2,28.1,30.02,NW,326,4.0,7.0,75,0.00,,,0.00,LWC V2.00 B2112,2013-01-08 14:38:00,
2013-01-08 06:43:00,35.8,27.7,30.03,NE,38,1.0,7.0,72,0.00,,,0.00,LWC V2.00 B2112,2013-01-08 14:43:00,
2013-01-08 06:48:00,35.9,27.4,30.03,NNW,336,0.0,0.0,71,0.00,,,0.00,LWC V2.00 B2112,2013-01-08 14:48:00,
2013-01-08 06:53:00,35.9,27.4,30.03,NNW,336,0.0,0.0,71,0.00,,,0.00,LWC V2.00 B2112,2013-01-08 14:53:00,
2013-01-08 06:58:00,35.9,27.4,30.03,NNW,336,0.0,0.0,71,0.00,,,0.00,LWC V2.00 B2112,2013-01-08 14:58:00,
2013-01-08 07:03:00,35.9,27.4,30.03,NNW,336,0.0,0.0,71,0.00,,,0.00,LWC V2.00 B2112,2013-01-08 15:03:00,
2013-01-08 07:08:00,35.9,27.4,30.03,NNW,336,0.0,0.0,71,0.00,,,0.00,LWC V2.00 B2112,2013-01-08 15:08:00,
2013-01-08 07:13:00,34.1,28.3,30.03,NNW,336,0.0,0.0,79,0.00,,,0.00,LWC V2.00 B2112,2013-01-08 15:13:00,
2013-01-08 07:18:00,34.0,28.8,30.03,NNW,336,0.0,0.0,81,0.00,,,0.00,LWC V2.00 B2112,2013-01-08 15:18:00,
2013-01-08 07:23:00,33.7,28.8,30.03,NNW,336,0.0,0.0,82,0.00,,,0.00,LWC V2.00 B2112,2013-01-08 15:23:00,
2013-01-08 07:28:00,33.4,28.5,30.03,NNW,336,0.0,0.0,82,0.00,,,0.00,LWC V2.00 B2112,2013-01-08 15:28:00,
2013-01-08 07:33:00,33.5,28.6,30.03,NNW,336,0.0,0.0,82,0.00,,,0.00,LWC V2.00 B2112,2013-01-08 15:33:00,
2013-01-08 07:38:00,33.4,28.8,30.03,NNW,336,0.0,0.0,83,0.00,,,0.00,LWC V2.00 B2112,2013-01-08 15:38:00,
2013-01-08 07:43:00,33.2,28.9,30.03,NNW,336,0.0,0.0,84,0.00,,,0.00,LWC V2.00 B2112,2013-01-08 15:43:00,
2013-01-08 07:48:00,32.9,28.6,30.03,NNW,336,0.0,0.0,84,0.00,,,0.00,LWC V2.00 B2112,2013-01-08 15:48:00,
2013-01-08 07:53:00,32.8,28.8,30.03,NNW,336,0.0,0.0,85,0.00,,,0.00,LWC V2.00 B2112,2013-01-08 15:53:00,
2013-01-08 07:58:00,32.7,28.7,30.03,East,80,0.0,0.0,85,0.00,,,0.00,LWC V2.00 B2112,2013-01-08 15:58:00,
2013-01-08 08:03:00,32.8,28.8,30.03,East,80,0.0,0.0,85,0.00,,,0.00,LWC V2.00 B2112,2013-01-08 16:03:00,
2013-01-08 08:08:00,32.7,29.0,30.03,East,80,0.0,0.0,86,0.00,,,0.00,LWC V2.00 B2112,2013-01-08 16:08:00,
2013-01-08 08:13:00,32.5,28.8,30.03,East,79,0.0,0.0,86,0.00,,,0.00,LWC V2.00 B2112,2013-01-08 16:13:00,
2013-01-08 08:18:00,32.5,28.8,30.03,East,79,0.0,0.0,86,0.00,,,0.00,LWC V2.00 B2112,2013-01-08 16:18:00,
2013-01-08 08:23:00,32.4,29.0,30.03,East,79,0.0,0.0,87,0.00,,,0.00,LWC V2.00 B2112,2013-01-08 16:23:00,
2013-01-08 08:28:00,32.4,28.7,30.04,East,88,0.0,0.0,86,0.00,,,0.00,LWC V2.00 B2112,2013-01-08 16:28:00,
2013-01-08 08:33:00,32.4,29.0,30.04,ESE,109,2.0,4.0,87,0.00,,,0.00,LWC V2.00 B2112,2013-01-08 16:33:00,
2013-01-08 08:38:00,31.9,28.5,30.04,East,89,4.0,7.0,87,0.00,,,0.00,LWC V2.00 B2112,2013-01-08 16:38:00,
2013-01-08 08:43:00,31.8,28.1,30.05,East,92,2.0,4.0,86,0.00,,,0.00,LWC V2.00 B2112,2013-01-08 16:43:00,
2013-01-08 08:48:00,31.6,28.2,30.05,ESE,102,1.0,2.0,87,0.00,,,0.00,LWC V2.00 B2112,2013-01-08 16:48:00,
2013-01-08 08:53:00,31.5,28.6,30.05,ESE,102,0.0,0.0,89,0.00,,,0.00,LWC V2.00 B2112,2013-01-08 16:53:00,
2013-01-08 08:58:00,31.3,28.4,30.06,ESE,102,0.0,0.0,89,0.00,,,0.00,LWC V2.00 B2112,2013-01-08 16:58:00,
2013-01-08 09:03:00,31.3,28.4,30.06,ESE,102,0.0,0.0,89,0.00,,,0.00,LWC V2.00 B2112,2013-01-08 17:03:00,
2013-01-08 09:08:00,31.5,28.9,30.06,ESE,102,0.0,0.0,90,0.00,,,0.00,LWC V2.00 B2112,2013-01-08 17:08:00,
2013-01-08 09:13:00,31.3,29.3,30.06,ESE,102,0.0,0.0,92,0.00,,,0.00,LWC V2.00 B2112,2013-01-08 17:13:00,
2013-01-08 09:18:00,31.3,29.3,30.06,ESE,102,0.0,0.0,92,0.00,,,0.00,LWC V2.00 B2112,2013-01-08 17:18:00,
2013-01-08 09:23:00,31.3,29.3,30.06,ESE,102,0.0,0.0,92,0.00,,,0.00,LWC V2.00 B2112,2013-01-08 17:23:00,
2013-01-08 09:28:00,31.3,29.3,30.06,ESE,102,0.0,0.0,92,0.00,,,0.00,LWC V2.00 B2112,2013-01-08 17:28:00,
2013-01-08 09:33:00,31.3,29.5,30.06,ESE,102,0.0,0.0,93,0.00,,,0.00,LWC V2.00 B2112,2013-01-08 17:33:00,
2013-01-08 09:38:00,31.3,29.5,30.06,ESE,102,0.0,0.0,93,0.00,,,0.00,LWC V2.00 B2112,2013-01-08 17:38:00,
2013-01-08 09:43:00,31.2,29.4,30.06,ESE,102,0.0,0.0,93,0.00,,,0.00,LWC V2.00 B2112,2013-01-08 17:43:00,
2013-01-08 09:48:00,31.0,29.5,30.06,ESE,102,0.0,0.0,94,0.00,,,0.00,LWC V2.00 B2112,2013-01-08 17:48:00,
2013-01-08 09:53:00,31.0,29.5,30.06,ESE,102,0.0,1.0,94,0.00,,,0.00,LWC V2.00 B2112,2013-01-08 17:53:00,
2013-01-08 09:58:00,30.9,29.4,30.07,ESE,102,0.0,0.0,94,0.00,,,0.00,LWC V2.00 B2112,2013-01-08 17:58:00,
2013-01-08 10:03:00,30.9,29.6,30.07,East,82,1.0,4.0,95,0.00,,,0.00,LWC V2.00 B2112,2013-01-08 18:03:00,
2013-01-08 10:08:00,30.9,29.6,30.07,ENE,78,0.0,2.0,95,0.00,,,0.00,LWC V2.00 B2112,2013-01-08 18:08:00,
2013-01-08 10:13:00,30.9,29.9,30.07,ENE,78,1.0,2.0,96,0.00,,,0.00,LWC V2.00 B2112,2013-01-08 18:13:00,
2013-01-08 10:18:00,30.9,29.6,30.07,East,86,0.0,0.0,95,0.00,,,0.00,LWC V2.00 B2112,2013-01-08 18:18:00,
2013-01-08 10:23:00,30.9,29.6,30.07,East,86,0.0,0.0,95,0.00,,,0.00,LWC V2.00 B2112,2013-01-08 18:23:00,
2013-01-08 10:28:00,30.9,29.6,30.06,East,86,0.0,0.0,95,0.00,,,0.00,LWC V2.00 B2112,2013-01-08 18:28:00,
2013-01-08 10:33:00,30.9,29.6,30.06,East,86,0.0,0.0,95,0.00,,,0.00,LWC V2.00 B2112,2013-01-08 18:33:00,
2013-01-08 10:38:00,30.9,29.6,30.06,East,86,0.0,0.0,95,0.00,,,0.00,LWC V2.00 B2112,2013-01-08 18:38:00,
2013-01-08 10:43:00,30.9,29.6,30.05,East,86,0.0,0.0,95,0.00,,,0.00,LWC V2.00 B2112,2013-01-08 18:43:00,
2013-01-08 10:48:00,30.9,29.6,30.05,East,86,0.0,0.0,95,0.00,,,0.00,LWC V2.00 B2112,2013-01-08 18:48:00,
2013-01-08 10:53:00,30.9,29.6,30.05,East,86,0.0,0.0,95,0.00,,,0.00,LWC V2.00 B2112,2013-01-08 18:53:00,
2013-01-08 10:58:00,31.0,29.7,30.04,East,86,0.0,0.0,95,0.00,,,0.00,LWC V2.00 B2112,2013-01-08 18:58:00,
2013-01-08 11:03:00,31.2,29.9,30.04,East,86,0.0,0.0,95,0.00,,,0.00,LWC V2.00 B2112,2013-01-08 19:03:00,
2013-01-08 11:08:00,31.3,30.0,30.04,East,86,0.0,0.0,95,0.00,,,0.00,LWC V2.00 B2112,2013-01-08 19:08:00,
2013-01-08 11:13:00,31.5,30.2,30.02,East,86,0.0,0.0,95,0.00,,,0.00,LWC V2.00 B2112,2013-01-08 19:13:00,
2013-01-08 11:18:00,31.5,30.2,30.02,East,86,0.0,0.0,95,0.00,,,0.00,LWC V2.00 B2112,2013-01-08 19:18:00,
2013-01-08 11:23:00,31.5,30.2,30.02,East,86,0.0,0.0,95,0.00,,,0.00,LWC V2.00 B2112,2013-01-08 19:23:00,
2013-01-08 11:28:00,31.5,30.0,30.02,East,86,0.0,0.0,94,0.00,,,0.00,LWC V2.00 B2112,2013-01-08 19:28:00,
2013-01-08 11:33:00,31.5,30.0,30.02,East,86,0.0,0.0,94,0.00,,,0.00,LWC V2.00 B2112,2013-01-08 19:33:00,
2013-01-08 11:38:00,31.5,30.0,30.02,East,86,0.0,0.0,94,0.00,,,0.00,LWC V2.00 B2112,2013-01-08 19:38:00,
2013-01-08 11:43:00,31.5,30.0,30.01,East,86,0.0,0.0,94,0.00,,,0.00,LWC V2.00 B2112,2013-01-08 19:43:00,
2013-01-08 11:48:00,31.6,30.1,30.01,East,86,0.0,0.0,94,0.00,,,0.00,LWC V2.00 B2112,2013-01-08 19:48:00,
2013-01-08 11:53:00,31.6,30.1,30.01,East,86,0.0,0.0,94,0.00,,,0.00,LWC V2.00 B2112,2013-01-08 19:53:00,
2013-01-08 11:58:00,31.6,30.1,30.00,East,86,0.0,0.0,94,0.00,,,0.00,LWC V2.00 B2112,2013-01-08 19:58:00,
2013-01-08 12:03:00,31.6,30.1,30.00,East,86,0.0,0.0,94,0.00,,,0.00,LWC V2.00 B2112,2013-01-08 20:03:00,
2013-01-08 12:08:00,31.6,30.1,30.00,East,86,0.0,0.0,94,0.00,,,0.00,LWC V2.00 B2112,2013-01-08 20:08:00,
2013-01-08 12:13:00,31.9,30.4,30.00,East,86,0.0,0.0,94,0.00,,,0.00,LWC V2.00 B2112,2013-01-08 20:13:00,
2013-01-08 12:18:00,31.9,30.4,30.00,East,86,0.0,0.0,94,0.00,,,0.00,LWC V2.00 B2112,2013-01-08 20:18:00,
2013-01-08 12:23:00,32.1,30.6,30.00,East,86,0.0,0.0,94,0.00,,,0.00,LWC V2.00 B2112,2013-01-08 20:23:00,
2013-01-08 12:28:00,32.1,30.6,29.99,East,86,0.0,0.0,94,0.00,,,0.00,LWC V2.00 B2112,2013-01-08 20:28:00,
2013-01-08 12:33:00,32.1,30.6,29.99,East,86,0.0,0.0,94,0.00,,,0.00,LWC V2.00 B2112,2013-01-08 20:33:00,
2013-01-08 12:38:00,32.1,30.6,29.99,East,86,0.0,0.0,94,0.00,,,0.00,LWC V2.00 B2112,2013-01-08 20:38:00,
2013-01-08 12:43:00,32.4,30.9,29.98,East,86,0.0,0.0,94,0.00,,,0.00,LWC V2.00 B2112,2013-01-08 20:43:00,
2013-01-08 12:48:00,32.7,30.9,29.98,East,86,0.0,0.0,93,0.00,,,0.00,LWC V2.00 B2112,2013-01-08 20:48:00,
2013-01-08 12:53:00,32.7,30.9,29.98,East,86,0.0,0.0,93,0.00,,,0.00,LWC V2.00 B2112,2013-01-08 20:53:00,
2013-01-08 12:58:00,32.5,30.7,29.98,East,86,0.0,0.0,93,0.00,,,0.00,LWC V2.00 B2112,2013-01-08 20:58:00,
2013-01-08 13:03:00,32.4,30.6,29.98,East,86,0.0,0.0,93,0.00,,,0.00,LWC V2.00 B2112,2013-01-08 21:03:00,
2013-01-08 13:08:00,32.7,30.9,29.98,East,86,0.0,0.0,93,0.00,,,0.00,LWC V2.00 B2112,2013-01-08 21:08:00,
2013-01-08 13:13:00,32.7,30.9,29.97,East,86,0.0,0.0,93,0.00,,,0.00,LWC V2.00 B2112,2013-01-08 21:13:00,
2013-01-08 13:18:00,32.5,30.7,29.97,East,86,0.0,1.0,93,0.00,,,0.00,LWC V2.00 B2112,2013-01-08 21:18:00,
2013-01-08 13:23:00,32.5,30.7,29.97,East,86,0.0,1.0,93,0.00,,,0.00,LWC V2.00 B2112,2013-01-08 21:23:00,
2013-01-08 13:28:00,32.5,30.7,29.96,SE,138,0.0,1.0,93,0.00,,,0.00,LWC V2.00 B2112,2013-01-08 21:28:00,
2013-01-08 13:33:00,32.4,30.6,29.96,SE,138,0.0,2.0,93,0.00,,,0.00,LWC V2.00 B2112,2013-01-08 21:33:00,
2013-01-08 13:38:00,32.4,30.6,29.96,SE,138,0.0,0.0,93,0.00,,,0.00,LWC V2.00 B2112,2013-01-08 21:38:00,
2013-01-08 13:43:00,32.8,31.3,29.96,SE,138,0.0,0.0,94,0.00,,,0.00,LWC V2.00 B2112,2013-01-08 21:43:00,
2013-01-08 13:48:00,32.9,31.1,29.96,SE,138,0.0,0.0,93,0.00,,,0.00,LWC V2.00 B2112,2013-01-08 21:48:00,
2013-01-08 13:53:00,33.2,31.7,29.96,SE,138,0.0,0.0,94,0.00,,,0.00,LWC V2.00 B2112,2013-01-08 21:53:00,
2013-01-08 13:58:00,33.1,31.0,29.96,SE,138,0.0,0.0,92,0.00,,,0.00,LWC V2.00 B2112,2013-01-08 21:58:00,
2013-01-08 14:03:00,32.9,30.8,29.96,SE,138,0.0,0.0,92,0.00,,,0.00,LWC V2.00 B2112,2013-01-08 22:03:00,
2013-01-08 14:08:00,32.9,31.1,29.96,SE,138,0.0,0.0,93,0.00,,,0.00,LWC V2.00 B2112,2013-01-08 22:08:00,
2013-01-08 14:13:00,32.7,30.9,29.95,SE,138,1.0,1.0,93,0.00,,,0.00,LWC V2.00 B2112,2013-01-08 22:13:00,
2013-01-08 14:18:00,32.7,30.9,29.95,SE,138,0.0,0.0,93,0.00,,,0.00,LWC V2.00 B2112,2013-01-08 22:18:00,
2013-01-08 14:23:00,32.7,31.2,29.95,SE,138,0.0,0.0,94,0.00,,,0.00,LWC V2.00 B2112,2013-01-08 22:23:00,
2013-01-08 14:28:00,32.7,31.2,29.95,SE,138,0.0,0.0,94,0.00,,,0.00,LWC V2.00 B2112,2013-01-08 22:28:00,
2013-01-08 14:33:00,32.7,30.9,29.95,SE,138,0.0,4.0,93,0.00,,,0.01,LWC V2.00 B2112,2013-01-08 22:33:00,
2013-01-08 14:38:00,32.5,30.7,29.95,SE,138,0.0,0.0,93,0.00,,,0.01,LWC V2.00 B2112,2013-01-08 22:38:00,
2013-01-08 14:43:00,32.4,30.6,29.94,SE,138,1.0,2.0,93,0.00,,,0.01,LWC V2.00 B2112,2013-01-08 22:43:00,
2013-01-08 14:48:00,32.2,30.4,29.94,SE,138,0.0,2.0,93,0.00,,,0.01,LWC V2.00 B2112,2013-01-08 22:48:00,
2013-01-08 14:53:00,32.2,30.7,29.94,SE,138,0.0,0.0,94,0.00,,,0.02,LWC V2.00 B2112,2013-01-08 22:53:00,
2013-01-08 14:58:00,32.2,30.7,29.94,SE,138,0.0,0.0,94,0.00,,,0.02,LWC V2.00 B2112,2013-01-08 22:58:00,
2013-01-08 15:03:00,32.2,30.7,29.94,SE,138,0.0,0.0,94,0.00,,,0.02,LWC V2.00 B2112,2013-01-08 23:03:00,
2013-01-08 15:08:00,32.4,30.9,29.94,SE,138,0.0,0.0,94,0.00,,,0.02,LWC V2.00 B2112,2013-01-08 23:08:00,
2013-01-08 15:13:00,32.5,31.0,29.93,SE,138,0.0,0.0,94,0.00,,,0.02,LWC V2.00 B2112,2013-01-08 23:13:00,
2013-01-08 15:18:00,32.5,31.0,29.93,SE,138,0.0,0.0,94,0.00,,,0.03,LWC V2.00 B2112,2013-01-08 23:18:00,
2013-01-08 15:23:00,32.4,30.9,29.93,SE,138,0.0,0.0,94,0.00,,,0.03,LWC V2.00 B2112,2013-01-08 23:23:00,
2013-01-08 15:28:00,32.4,30.9,29.93,SE,138,0.0,0.0,94,0.06,,,0.04,LWC V2.00 B2112,2013-01-08 23:28:00,
2013-01-08 15:33:00,32.5,31.0,29.93,SE,138,0.0,0.0,94,0.06,,,0.04,LWC V2.00 B2112,2013-01-08 23:33:00,
2013-01-08 15:38:00,32.4,30.9,29.93,SE,138,0.0,0.0,94,0.06,,,0.04,LWC V2.00 B2112,2013-01-08 23:38:00,
2013-01-08 15:43:00,32.4,30.9,29.92,SE,138,0.0,0.0,94,0.04,,,0.04,LWC V2.00 B2112,2013-01-08 23:43:00,
2013-01-08 15:48:00,32.2,30.7,29.92,SE,138,0.0,0.0,94,0.00,,,0.04,LWC V2.00 B2112,2013-01-08 23:48:00,
2013-01-08 15:53:00,32.2,30.7,29.92,SE,138,0.0,0.0,94,0.00,,,0.04,LWC V2.00 B2112,2013-01-08 23:53:00,
2013-01-08 15:58:00,32.2,30.7,29.92,SE,138,0.0,0.0,94,0.00,,,0.05,LWC V2.00 B2112,2013-01-08 23:58:00,
2013-01-08 16:03:00,32.2,30.9,29.92,SE,138,0.0,2.0,95,0.00,,,0.05,LWC V2.00 B2112,2013-01-09 00:03:00,
2013-01-08 16:08:00,32.1,30.8,29.92,SE,138,0.0,0.0,95,0.06,,,0.06,LWC V2.00 B2112,2013-01-09 00:08:00,
2013-01-08 16:13:00,31.9,30.6,29.91,SE,138,0.0,0.0,95,0.06,,,0.06,LWC V2.00 B2112,2013-01-09 00:13:00,
2013-01-08 16:18:00,31.8,30.5,29.91,SE,138,0.0,0.0,95,0.05,,,0.06,LWC V2.00 B2112,2013-01-09 00:18:00,
2013-01-08 16:23:00,31.6,30.1,29.91,SE,138,0.0,0.0,94,0.04,,,0.06,LWC V2.00 B2112,2013-01-09 00:23:00,
2013-01-08 16:28:00,31.5,30.0,29.90,SE,138,0.0,0.0,94,0.00,,,0.06,LWC V2.00 B2112,2013-01-09 00:28:00,
2013-01-08 16:33:00,31.3,29.8,29.90,SE,138,0.0,0.0,94,0.00,,,0.06,LWC V2.00 B2112,2013-01-09 00:33:00,
2013-01-08 16:38:00,30.9,29.4,29.90,SE,138,0.0,0.0,94,0.00,,,0.06,LWC V2.00 B2112,2013-01-09 00:38:00,
2013-01-08 16:43:00,30.9,29.6,29.89,SE,138,0.0,0.0,95,0.00,,,0.06,LWC V2.00 B2112,2013-01-09 00:43:00,
2013-01-08 16:48:00,31.0,30.0,29.89,SE,138,0.0,0.0,96,0.00,,,0.07,LWC V2.00 B2112,2013-01-09 00:48:00,
2013-01-08 16:53:00,31.2,30.2,29.89,SE,138,0.0,0.0,96,0.00,,,0.07,LWC V2.00 B2112,2013-01-09 00:53:00,
2013-01-08 16:58:00,31.2,30.2,29.88,SE,138,0.0,1.0,96,0.00,,,0.07,LWC V2.00 B2112,2013-01-09 00:58:00,
2013-01-08 17:03:00,31.2,30.2,29.88,SE,138,0.0,0.0,96,0.00,,,0.07,LWC V2.00 B2112,2013-01-09 01:03:00,
2013-01-08 17:08:00,31.0,30.0,29.88,SE,138,0.0,2.0,96,0.00,,,0.07,LWC V2.00 B2112,2013-01-09 01:08:00,
2013-01-08 17:13:00,31.0,30.0,29.87,SE,138,0.0,0.0,96,0.00,,,0.07,LWC V2.00 B2112,2013-01-09 01:13:00,
2013-01-08 17:18:00,31.0,30.0,29.87,SE,138,0.0,0.0,96,0.00,,,0.07,LWC V2.00 B2112,2013-01-09 01:18:00,
2013-01-08 17:23:00,31.0,30.0,29.87,SE,138,0.0,0.0,96,0.00,,,0.07,LWC V2.00 B2112,2013-01-09 01:23:00,
2013-01-08 17:28:00,30.9,30.2,29.85,SE,138,0.0,0.0,97,0.00,,,0.07,LWC V2.00 B2112,2013-01-09 01:28:00,
2013-01-08 17:33:00,31.0,30.2,29.85,SE,138,0.0,0.0,97,0.00,,,0.07,LWC V2.00 B2112,2013-01-09 01:33:00,
2013-01-08 17:38:00,31.0,30.2,29.85,SE,138,0.0,0.0,97,0.00,,,0.07,LWC V2.00 B2112,2013-01-09 01:38:00,
2013-01-08 17:43:00,31.0,30.2,29.84,SE,138,0.0,0.0,97,0.00,,,0.07,LWC V2.00 B2112,2013-01-09 01:43:00,
2013-01-08 17:48:00,31.0,30.2,29.84,SE,138,0.0,0.0,97,0.00,,,0.07,LWC V2.00 B2112,2013-01-09 01:48:00,
2013-01-08 17:53:00,31.0,30.2,29.84,SE,138,0.0,0.0,97,0.00,,,0.07,LWC V2.00 B2112,2013-01-09 01:53:00,
2013-01-08 17:58:00,31.0,30.2,29.82,SE,140,0.0,0.0,97,0.00,,,0.07,LWC V2.00 B2112,2013-01-09 01:58:00,
2013-01-08 18:03:00,31.0,30.2,29.82,SE,140,0.0,0.0,97,0.00,,,0.07,LWC V2.00 B2112,2013-01-09 02:03:00,
2013-01-08 18:08:00,31.0,30.2,29.82,SE,140,0.0,0.0,97,0.00,,,0.07,LWC V2.00 B2112,2013-01-09 02:08:00,
2013-01-08 18:13:00,31.0,30.2,29.81,SE,140,0.0,0.0,97,0.00,,,0.07,LWC V2.00 B2112,2013-01-09 02:13:00,
2013-01-08 18:18:00,31.0,30.2,29.81,SE,140,0.0,0.0,97,0.00,,,0.07,LWC V2.00 B2112,2013-01-09 02:18:00,
2013-01-08 18:23:00,31.0,30.2,29.81,SE,140,0.0,0.0,97,0.00,,,0.07,LWC V2.00 B2112,2013-01-09 02:23:00,
2013-01-08 18:28:00,31.0,30.2,29.80,SE,140,0.0,0.0,97,0.00,,,0.07,LWC V2.00 B2112,2013-01-09 02:28:00,
2013-01-08 18:33:00,31.2,30.5,29.80,SE,140,0.0,0.0,97,0.00,,,0.07,LWC V2.00 B2112,2013-01-09 02:33:00,
2013-01-08 18:38:00,31.2,30.5,29.80,SE,140,0.0,0.0,97,0.00,,,0.07,LWC V2.00 B2112,2013-01-09 02:38:00,
2013-01-08 18:43:00,31.2,30.5,29.79,SE,140,0.0,0.0,97,0.00,,,0.07,LWC V2.00 B2112,2013-01-09 02:43:00,
2013-01-08 18:48:00,31.2,30.5,29.79,SE,140,0.0,0.0,97,0.00,,,0.07,LWC V2.00 B2112,2013-01-09 02:48:00,
2013-01-08 18:53:00,31.3,30.5,29.79,SE,140,0.0,0.0,97,0.00,,,0.07,LWC V2.00 B2112,2013-01-09 02:53:00,
2013-01-08 18:58:00,31.3,30.5,29.79,SE,140,0.0,0.0,97,0.00,,,0.07,LWC V2.00 B2112,2013-01-09 02:58:00,
2013-01-08 19:03:00,31.2,30.5,29.79,SE,140,0.0,0.0,97,0.00,,,0.07,LWC V2.00 B2112,2013-01-09 03:03:00,
2013-01-08 19:08:00,31.2,30.5,29.79,SE,140,0.0,0.0,97,0.00,,,0.07,LWC V2.00 B2112,2013-01-09 03:08:00,
2013-01-08 19:13:00,31.2,30.5,29.79,SE,140,0.0,0.0,97,0.00,,,0.07,LWC V2.00 B2112,2013-01-09 03:13:00,
2013-01-08 19:18:00,31.2,30.5,29.79,SE,140,0.0,0.0,97,0.00,,,0.07,LWC V2.00 B2112,2013-01-09 03:18:00,
2013-01-08 19:23:00,31.2,30.5,29.79,SE,140,0.0,0.0,97,0.00,,,0.07,LWC V2.00 B2112,2013-01-09 03:23:00,
2013-01-08 19:28:00,31.2,30.5,29.78,SE,140,0.0,0.0,97,0.00,,,0.07,LWC V2.00 B2112,2013-01-09 03:28:00,
2013-01-08 19:33:00,31.2,30.5,29.78,SE,140,0.0,0.0,97,0.00,,,0.07,LWC V2.00 B2112,2013-01-09 03:33:00,
2013-01-08 19:38:00,31.2,30.5,29.78,SE,140,0.0,0.0,97,0.00,,,0.07,LWC V2.00 B2112,2013-01-09 03:38:00,
2013-01-08 19:43:00,31.2,30.5,29.77,SE,140,0.0,0.0,97,0.00,,,0.07,LWC V2.00 B2112,2013-01-09 03:43:00,
2013-01-08 19:48:00,31.2,30.5,29.77,SE,140,0.0,0.0,97,0.00,,,0.07,LWC V2.00 B2112,2013-01-09 03:48:00,
2013-01-08 19:53:00,31.2,30.5,29.77,SE,140,0.0,0.0,97,0.00,,,0.07,LWC V2.00 B2112,2013-01-09 03:53:00,
2013-01-08 19:58:00,31.2,30.5,29.77,SE,140,0.0,0.0,97,0.00,,,0.07,LWC V2.00 B2112,2013-01-09 03:58:00,
2013-01-08 20:03:00,31.2,30.5,29.77,SE,140,0.0,0.0,97,0.00,,,0.07,LWC V2.00 B2112,2013-01-09 04:03:00,
2013-01-08 20:08:00,31.3,30.5,29.77,SSW,208,1.0,1.0,97,0.00,,,0.07,LWC V2.00 B2112,2013-01-09 04:08:00,
2013-01-08 20:13:00,31.3,30.5,29.77,SSW,208,0.0,0.0,97,0.00,,,0.07,LWC V2.00 B2112,2013-01-09 04:13:00,
2013-01-08 20:18:00,31.3,30.5,29.77,SSW,208,0.0,0.0,97,0.00,,,0.07,LWC V2.00 B2112,2013-01-09 04:18:00,
2013-01-08 20:23:00,31.5,30.7,29.77,SSW,208,0.0,0.0,97,0.00,,,0.07,LWC V2.00 B2112,2013-01-09 04:23:00,
2013-01-08 20:28:00,31.5,30.7,29.76,SSW,208,0.0,0.0,97,0.00,,,0.07,LWC V2.00 B2112,2013-01-09 04:28:00,
2013-01-08 20:33:00,31.5,30.7,29.76,SSW,208,0.0,0.0,97,0.00,,,0.07,LWC V2.00 B2112,2013-01-09 04:33:00,
2013-01-08 20:38:00,31.5,30.7,29.76,SSW,208,0.0,1.0,97,0.00,,,0.07,LWC V2.00 B2112,2013-01-09 04:38:00,
2013-01-08 20:43:00,31.5,30.7,29.76,SSW,208,0.0,0.0,97,0.00,,,0.07,LWC V2.00 B2112,2013-01-09 04:43:00,
2013-01-08 20:48:00,31.6,30.8,29.76,SSW,208,0.0,0.0,97,0.00,,,0.07,LWC V2.00 B2112,2013-01-09 04:48:00,
2013-01-08 20:53:00,31.6,30.8,29.76,SSW,208,0.0,0.0,97,0.00,,,0.07,LWC V2.00 B2112,2013-01-09 04:53:00,
2013-01-08 20:58:00,31.6,30.8,29.76,SSW,208,0.0,0.0,97,0.00,,,0.07,LWC V2.00 B2112,2013-01-09 04:58:00,
2013-01-08 21:00:00,31.6,30.8,29.76,SSW,208,0.0,0.0,97,0.00,,,0.07,LWC V2.00 B2112,2013-01-09 05:00:00,
2013-01-08 21:01:00,31.6,30.8,29.76,SSW,208,0.0,0.0,97,0.00,,,0.07,LWC V2.00 B2112,2013-01-09 05:01:00,
2013-01-08 21:06:00,31.6,30.8,29.76,SSW,208,0.0,0.0,97,0.00,,,0.07,LWC V2.00 B2112,2013-01-09 05:06:00,
2013-01-08 21:11:00,31.6,30.8,29.75,SSW,208,0.0,0.0,97,0.00,,,0.07,LWC V2.00 B2112,2013-01-09 05:11:00,
2013-01-08 21:16:00,31.6,30.8,29.75,SSW,208,0.0,0.0,97,0.00,,,0.07,LWC V2.00 B2112,2013-01-09 05:16:00,
2013-01-08 21:21:00,31.6,30.8,29.75,SSW,208,0.0,0.0,97,0.00,,,0.07,LWC V2.00 B2112,2013-01-09 05:21:00,
2013-01-08 21:26:00,31.6,30.8,29.75,SSW,208,0.0,0.0,97,0.00,,,0.07,LWC V2.00 B2112,2013-01-09 05:26:00,
2013-01-08 21:31:00,31.6,30.8,29.75,SSW,208,0.0,0.0,97,0.00,,,0.07,LWC V2.00 B2112,2013-01-09 05:31:00,
2013-01-08 21:36:00,31.6,30.8,29.75,SSW,208,0.0,0.0,97,0.00,,,0.07,LWC V2.00 B2112,2013-01-09 05:36:00,
2013-01-08 21:41:00,31.6,30.8,29.75,SSW,208,0.0,0.0,97,0.00,,,0.07,LWC V2.00 B2112,2013-01-09 05:41:00,
2013-01-08 21:46:00,31.6,30.8,29.75,SSW,208,0.0,0.0,97,0.00,,,0.07,LWC V2.00 B2112,2013-01-09 05:46:00,
2013-01-08 21:51:00,31.6,30.8,29.75,SSW,208,0.0,0.0,97,0.00,,,0.07,LWC V2.00 B2112,2013-01-09 05:51:00,
2013-01-08 21:56:00,31.8,31.0,29.74,SSW,208,0.0,0.0,97,0.00,,,0.07,LWC V2.00 B2112,2013-01-09 05:56:00,
2013-01-08 22:01:00,31.8,31.0,29.74,SSW,208,0.0,0.0,97,0.00,,,0.07,LWC V2.00 B2112,2013-01-09 06:01:00,
2013-01-08 22:06:00,31.6,30.8,29.74,SSW,208,0.0,0.0,97,0.00,,,0.07,LWC V2.00 B2112,2013-01-09 06:06:00,
2013-01-08 22:11:00,31.6,30.8,29.74,SSW,208,0.0,0.0,97,0.00,,,0.07,LWC V2.00 B2112,2013-01-09 06:11:00,
2013-01-08 22:16:00,31.6,30.8,29.74,SSW,208,0.0,0.0,97,0.00,,,0.07,LWC V2.00 B2112,2013-01-09 06:16:00,
2013-01-08 22:21:00,31.8,31.0,29.74,SSW,208,0.0,0.0,97,0.00,,,0.07,LWC V2.00 B2112,2013-01-09 06:21:00,
2013-01-08 22:26:00,31.8,31.0,29.75,SSW,208,0.0,0.0,97,0.00,,,0.07,LWC V2.00 B2112,2013-01-09 06:26:00,
2013-01-08 22:31:00,31.8,31.0,29.75,SSW,208,0.0,0.0,97,0.00,,,0.07,LWC V2.00 B2112,2013-01-09 06:31:00,
2013-01-08 22:36:00,31.8,31.0,29.75,SSW,208,0.0,0.0,97,0.00,,,0.07,LWC V2.00 B2112,2013-01-09 06:36:00,
2013-01-08 22:41:00,31.8,31.0,29.74,SSW,208,0.0,0.0,97,0.00,,,0.07,LWC V2.00 B2112,2013-01-09 06:41:00,
2013-01-08 22:46:00,31.8,31.0,29.74,SSW,208,0.0,0.0,97,0.00,,,0.07,LWC V2.00 B2112,2013-01-09 06:46:00,
2013-01-08 22:51:00,31.8,31.0,29.74,SSW,208,0.0,0.0,97,0.00,,,0.07,LWC V2.00 B2112,2013-01-09 06:51:00,
2013-01-08 22:56:00,31.9,31.1,29.74,SSW,208,0.0,0.0,97,0.00,,,0.07,LWC V2.00 B2112,2013-01-09 06:56:00,
2013-01-08 23:01:00,31.9,31.1,29.74,SSW,208,0.0,0.0,97,0.00,,,0.07,LWC V2.00 B2112,2013-01-09 07:01:00,
2013-01-08 23:06:00,32.1,31.3,29.74,NW,316,0.0,2.0,97,0.00,,,0.07,LWC V2.00 B2112,2013-01-09 07:06:00,
2013-01-08 23:11:00,32.1,31.3,29.74,NNE,21,0.0,0.0,97,0.00,,,0.07,LWC V2.00 B2112,2013-01-09 07:11:00,
2013-01-08 23:16:00,32.2,31.4,29.74,NW,305,0.0,0.0,97,0.00,,,0.07,LWC V2.00 B2112,2013-01-09 07:16:00,
2013-01-08 23:21:00,32.1,31.3,29.74,NW,308,0.0,1.0,97,0.00,,,0.07,LWC V2.00 B2112,2013-01-09 07:21:00,
2013-01-08 23:26:00,32.2,31.2,29.74,NW,308,0.0,2.0,96,0.00,,,0.07,LWC V2.00 B2112,2013-01-09 07:26:00,
2013-01-08 23:31:00,32.2,30.9,29.74,NW,308,0.0,2.0,95,0.00,,,0.07,LWC V2.00 B2112,2013-01-09 07:31:00,
2013-01-08 23:36:00,32.4,30.9,29.74,NW,308,2.0,2.0,94,0.00,,,0.07,LWC V2.00 B2112,2013-01-09 07:36:00,
2013-01-08 23:41:00,32.4,30.6,29.73,WSW,258,1.0,4.0,93,0.00,,,0.00,LWC V2.00 B2112,2013-01-09 07:41:00,
2013-01-08 23:46:00,32.4,30.6,29.73,NNW,344,6.0,6.0,93,0.00,,,0.00,LWC V2.00 B2112,2013-01-09 07:46:00,
2013-01-08 23:51:00,32.4,30.6,29.73,NW,320,0.0,2.0,93,0.00,,,0.00,LWC V2.00 B2112,2013-01-09 07:51:00,
2013-01-08 23:56:00,32.4,30.6,29.73,West,275,2.0,2.0,93,0.00,,,0.00,LWC V2.00 B2112,2013-01-09 07:56:00,